Terminal Aerodrome Forecast
Issued by NWS

Home | Current Version | Previous Version | Text Only | Print | Product List | Glossary Off
Versions: 1 2 3 4 5 6 7 8 9 10 11 12 13

000
FTUS43 KMPX 202330
TAFRWF
TAF
KRWF 202330Z 2100/2124 32009KT P6SM BKN035 OVC060
     FM210300 32006KT P6SM SCT035 BKN070
     FM210600 33005KT P6SM SCT070
     FM211400 35006KT P6SM FEW035
     FM212200 03006KT P6SM SKC=

USA.gov is the U.S. government's official web portal to all federal, state and local government web resources and services.